Time;durP1;ratioP1;P1;durP2;ratioP2;P2;SDS_P1;SDS_P2;PMS_P1;PMS_P2;Temp;Humidity;BMP_temperature;BMP_pressure;BME280_temperature;BME280_humidity;BME280_pressure;Samples;Min_cycle;Max_cycle;Signal;HPM_P1;HPM_P2
2021/09/17 00:00:57;;;;;;;0.28;0.20;;;13.40;99.90;;;;;;4982584;28;20100;-94
2021/09/17 00:03:25;;;;;;;0.22;0.20;;;13.40;99.90;;;;;;4982221;28;20049;-94
2021/09/17 00:05:52;;;;;;;0.00;0.00;;;13.40;99.90;;;;;;4982971;28;20049;-94
2021/09/17 00:08:19;;;;;;;0.00;0.00;;;13.30;99.90;;;;;;4998534;28;20046;-94
2021/09/17 00:10:46;;;;;;;0.00;0.00;;;13.30;99.90;;;;;;4998445;28;20049;-95
2021/09/17 00:13:13;;;;;;;0.00;0.00;;;13.30;99.90;;;;;;4998326;28;20046;-94
2021/09/17 00:15:40;;;;;;;0.00;0.00;;;13.30;99.90;;;;;;4990334;28;20471;-94
2021/09/17 00:18:07;;;;;;;0.00;0.00;;;13.30;99.90;;;;;;4988698;28;20116;-94
2021/09/17 00:20:35;;;;;;;0.00;0.00;;;13.30;99.90;;;;;;5017228;28;20458;-94
2021/09/17 00:23:02;;;;;;;0.75;0.20;;;13.20;99.90;;;;;;4998146;28;20040;-94
2021/09/17 00:25:29;;;;;;;0.22;0.20;;;13.20;99.90;;;;;;5013799;28;20042;-94
2021/09/17 00:27:56;;;;;;;0.10;0.10;;;13.20;99.90;;;;;;5025917;28;20041;-95
2021/09/17 00:30:28;;;;;;;0.10;0.10;;;13.20;99.90;;;;;;5001097;28;20438;-95
2021/09/17 00:32:59;;;;;;;0.47;0.30;;;13.20;99.90;;;;;;5001763;28;20493;-94
2021/09/17 00:35:27;;;;;;;0.00;0.00;;;13.10;99.90;;;;;;5033226;28;20076;-94
2021/09/17 00:37:54;;;;;;;0.10;0.10;;;13.20;99.90;;;;;;5033497;28;20045;-94
2021/09/17 00:40:21;;;;;;;0.00;0.00;;;13.20;99.90;;;;;;5049789;28;20049;-94
2021/09/17 00:42:48;;;;;;;0.03;0.03;;;13.10;99.90;;;;;;5033504;28;20042;-94
2021/09/17 00:45:15;;;;;;;0.00;0.00;;;13.10;99.90;;;;;;5033122;28;20041;-94
2021/09/17 00:47:42;;;;;;;0.00;0.00;;;13.10;99.90;;;;;;5017608;28;20440;-94
2021/09/17 00:50:13;;;;;;;0.00;0.00;;;13.10;99.90;;;;;;5016557;28;20050;-93
2021/09/17 00:52:41;;;;;;;0.00;0.00;;;13.10;99.90;;;;;;5033182;28;20096;-94
2021/09/17 00:55:09;;;;;;;0.08;0.08;;;13.00;99.90;;;;;;5033149;28;20497;-93
2021/09/17 00:57:36;;;;;;;0.08;0.08;;;13.00;99.90;;;;;;5016913;28;20038;-94
2021/09/17 01:00:09;;;;;;;0.00;0.00;;;13.00;99.90;;;;;;5033254;28;20042;-95
2021/09/17 01:02:37;;;;;;;0.10;0.10;;;13.00;99.90;;;;;;5033352;28;20072;-94
2021/09/17 01:05:06;;;;;;;0.10;0.10;;;13.00;99.90;;;;;;5017339;28;20038;-94
2021/09/17 01:07:33;;;;;;;0.05;0.05;;;12.90;99.90;;;;;;5032593;28;20421;-94
2021/09/17 01:10:01;;;;;;;0.13;0.08;;;12.90;99.90;;;;;;5032928;28;20367;-94
2021/09/17 01:12:29;;;;;;;0.00;0.00;;;12.90;99.90;;;;;;5000523;28;20042;-94
2021/09/17 01:14:56;;;;;;;0.00;0.00;;;12.90;99.90;;;;;;5033033;28;20124;-94
2021/09/17 01:17:33;;;;;;;0.10;0.10;;;12.80;99.90;;;;;;5000473;28;20129;-94
2021/09/17 01:20:01;;;;;;;0.00;0.00;;;12.80;99.90;;;;;;5016836;28;20363;-94
2021/09/17 01:22:28;;;;;;;0.00;0.00;;;12.80;99.90;;;;;;5000092;28;20478;-94
2021/09/17 01:24:55;;;;;;;0.08;0.08;;;12.80;99.90;;;;;;5032533;28;20080;-94
2021/09/17 01:27:23;;;;;;;0.00;0.00;;;12.80;99.90;;;;;;5016047;28;20077;-94
2021/09/17 01:29:51;;;;;;;0.00;0.00;;;12.80;99.90;;;;;;5016505;28;20508;-93
2021/09/17 01:32:18;;;;;;;0.00;0.00;;;12.80;99.90;;;;;;5016187;28;20042;-94
2021/09/17 01:34:46;;;;;;;0.00;0.00;;;12.80;99.90;;;;;;5032690;28;20497;-95
2021/09/17 01:37:12;;;;;;;0.00;0.00;;;12.80;99.90;;;;;;5032018;28;20121;-94
2021/09/17 01:39:39;;;;;;;0.05;0.05;;;12.80;99.90;;;;;;5016073;28;20192;-94
2021/09/17 01:42:06;;;;;;;0.00;0.00;;;12.80;99.90;;;;;;4999915;28;20375;-94
2021/09/17 01:44:39;;;;;;;0.10;0.10;;;12.80;99.90;;;;;;5015507;28;20045;-94
2021/09/17 01:47:07;;;;;;;0.22;0.00;;;12.80;99.90;;;;;;5016305;28;20505;-94
2021/09/17 01:49:34;;;;;;;0.50;0.25;;;12.80;99.90;;;;;;5015911;28;20053;-94
2021/09/17 01:52:01;;;;;;;0.00;0.00;;;12.80;99.90;;;;;;5032156;28;20135;-93
2021/09/17 01:54:28;;;;;;;0.00;0.00;;;12.80;99.90;;;;;;5031865;28;20397;-94
2021/09/17 01:56:55;;;;;;;0.10;0.10;;;12.80;99.90;;;;;;5015686;28;20133;-94
2021/09/17 01:59:22;;;;;;;0.00;0.00;;;12.90;99.90;;;;;;5015570;28;20037;-95
2021/09/17 02:01:49;;;;;;;0.00;0.00;;;12.90;99.90;;;;;;4999781;28;20100;-94
2021/09/17 02:04:17;;;;;;;0.03;0.03;;;12.90;99.90;;;;;;4999378;28;20042;-94
2021/09/17 02:06:44;;;;;;;0.10;0.10;;;12.90;99.90;;;;;;4999734;28;20041;-94
2021/09/17 02:09:11;;;;;;;0.17;0.17;;;12.90;99.90;;;;;;5015603;28;20056;-94
2021/09/17 02:11:38;;;;;;;0.00;0.00;;;12.80;99.90;;;;;;5031750;28;20042;-94
2021/09/17 02:14:05;;;;;;;0.13;0.10;;;12.80;99.90;;;;;;5015884;28;20048;-94
2021/09/17 02:16:32;;;;;;;0.00;0.00;;;12.80;99.90;;;;;;5015413;28;20045;-94
2021/09/17 02:18:59;;;;;;;0.00;0.00;;;12.80;99.90;;;;;;5031506;28;20181;-95
2021/09/17 02:21:26;;;;;;;0.00;0.00;;;12.80;99.90;;;;;;5015030;28;20041;-94
2021/09/17 02:23:53;;;;;;;0.10;0.10;;;12.80;99.90;;;;;;4999957;28;20089;-94
2021/09/17 02:26:21;;;;;;;0.00;0.00;;;12.80;99.90;;;;;;5031274;28;20192;-94
2021/09/17 02:28:48;;;;;;;0.00;0.00;;;12.80;99.90;;;;;;5031438;28;20045;-94
2021/09/17 02:31:15;;;;;;;0.00;0.00;;;12.80;99.90;;;;;;5015896;28;20042;-94
2021/09/17 02:33:42;;;;;;;0.10;0.00;;;12.80;99.90;;;;;;5015825;28;20059;-94
2021/09/17 02:36:09;;;;;;;0.10;0.10;;;12.80;99.90;;;;;;5015115;28;20041;-94
2021/09/17 02:38:36;;;;;;;0.00;0.00;;;12.90;99.90;;;;;;5031073;28;20038;-95
2021/09/17 02:41:03;;;;;;;0.10;0.10;;;12.80;99.90;;;;;;5015260;28;20048;-95
2021/09/17 02:43:30;;;;;;;0.00;0.00;;;12.90;99.90;;;;;;5030822;28;20103;-94
2021/09/17 02:45:59;;;;;;;0.00;0.00;;;12.90;99.90;;;;;;5031653;28;20046;-94
2021/09/17 02:48:29;;;;;;;0.20;0.20;;;12.60;99.90;;;;;;5031078;28;20069;-94
2021/09/17 02:50:56;;;;;;;0.10;0.10;;;13.00;99.90;;;;;;4998625;28;20058;-93
2021/09/17 02:53:23;;;;;;;0.00;0.00;;;13.00;99.90;;;;;;4998587;28;20501;-94
2021/09/17 02:55:50;;;;;;;0.08;0.08;;;13.00;99.90;;;;;;5016220;28;20053;-94
2021/09/17 02:58:16;;;;;;;0.00;0.00;;;13.10;99.90;;;;;;5003012;28;20397;-94
2021/09/17 03:00:44;;;;;;;0.00;0.00;;;13.10;99.90;;;;;;5002681;28;20065;-94
2021/09/17 03:03:11;;;;;;;0.45;0.28;;;13.00;99.90;;;;;;5019231;28;20048;-94
2021/09/17 03:05:38;;;;;;;0.00;0.00;;;13.10;99.90;;;;;;5018662;28;20038;-94
2021/09/17 03:08:05;;;;;;;0.10;0.10;;;13.10;99.90;;;;;;5018789;28;20034;-95
2021/09/17 03:10:32;;;;;;;0.00;0.00;;;13.10;99.90;;;;;;5002469;28;20089;-94
2021/09/17 03:12:59;;;;;;;0.00;0.00;;;13.10;99.90;;;;;;5003178;28;20450;-94
2021/09/17 03:15:26;;;;;;;0.28;0.28;;;13.10;99.90;;;;;;5018640;28;20120;-94
2021/09/17 03:17:53;;;;;;;0.00;0.00;;;13.10;99.90;;;;;;5018755;28;20078;-94
2021/09/17 03:20:20;;;;;;;0.00;0.00;;;13.00;99.90;;;;;;5034890;28;20127;-94
2021/09/17 03:22:48;;;;;;;0.00;0.00;;;13.10;99.90;;;;;;5034562;28;20042;-94
2021/09/17 03:25:15;;;;;;;0.03;0.03;;;13.00;99.90;;;;;;5018808;28;20045;-95
2021/09/17 03:27:42;;;;;;;0.13;0.13;;;13.00;99.90;;;;;;5018227;28;20137;-95
2021/09/17 03:30:10;;;;;;;0.05;0.05;;;13.00;99.90;;;;;;5018408;28;20498;-94
2021/09/17 03:32:37;;;;;;;0.35;0.10;;;13.00;99.90;;;;;;5034300;28;20041;-94
2021/09/17 03:35:04;;;;;;;0.10;0.10;;;13.00;99.90;;;;;;5018235;28;20046;-94
2021/09/17 03:37:31;;;;;;;0.03;0.03;;;13.00;99.90;;;;;;5001752;28;20046;-94
2021/09/17 03:39:58;;;;;;;0.00;0.00;;;13.00;99.90;;;;;;5002569;28;20033;-94
2021/09/17 03:42:27;;;;;;;0.00;0.00;;;13.00;99.90;;;;;;5002567;28;20049;-95
2021/09/17 03:44:54;;;;;;;0.00;0.00;;;12.90;99.90;;;;;;5002767;28;20081;-94
2021/09/17 03:47:21;;;;;;;0.00;0.00;;;12.90;99.90;;;;;;5002346;28;20092;-94
2021/09/17 03:49:48;;;;;;;0.00;0.00;;;12.90;99.90;;;;;;5018108;28;20046;-94
2021/09/17 03:52:16;;;;;;;0.00;0.00;;;12.80;99.90;;;;;;5018017;28;20054;-94
2021/09/17 03:54:43;;;;;;;0.10;0.10;;;12.80;99.90;;;;;;5017945;28;20076;-95
2021/09/17 03:57:10;;;;;;;0.00;0.00;;;12.70;99.90;;;;;;5033971;28;20505;-94
2021/09/17 03:59:37;;;;;;;0.15;0.15;;;12.70;99.90;;;;;;5001840;28;20046;-94
2021/09/17 04:02:04;;;;;;;0.10;0.10;;;12.60;99.90;;;;;;5034331;28;20033;-94
2021/09/17 04:04:31;;;;;;;0.10;0.10;;;12.70;99.90;;;;;;5033810;28;20497;-93
2021/09/17 04:06:58;;;;;;;0.00;0.00;;;12.60;99.90;;;;;;5034006;28;20096;-94
2021/09/17 04:09:25;;;;;;;0.00;0.00;;;12.60;99.90;;;;;;5034198;28;20383;-94
2021/09/17 04:11:52;;;;;;;0.28;0.10;;;12.60;99.90;;;;;;5033067;28;20042;-94
2021/09/17 04:14:19;;;;;;;0.00;0.00;;;12.50;99.90;;;;;;5006939;28;20395;-94
2021/09/17 04:16:46;;;;;;;0.00;0.00;;;12.50;99.90;;;;;;5006908;28;20100;-94
2021/09/17 04:19:13;;;;;;;0.00;0.00;;;12.50;99.90;;;;;;4992308;28;20038;-93
2021/09/17 04:21:40;;;;;;;0.08;0.08;;;12.40;99.90;;;;;;4991940;28;20052;-94
2021/09/17 04:24:07;;;;;;;1.15;0.20;;;12.40;99.90;;;;;;5005594;28;20034;-94
2021/09/17 04:26:34;;;;;;;0.25;0.20;;;12.40;99.90;;;;;;5011140;28;20520;-94
2021/09/17 04:29:02;;;;;;;0.10;0.10;;;12.40;99.90;;;;;;5001556;28;20042;-94
2021/09/17 04:31:29;;;;;;;0.10;0.10;;;12.40;99.90;;;;;;5017712;28;20046;-93
2021/09/17 04:33:55;;;;;;;0.28;0.10;;;12.50;99.90;;;;;;5017080;28;20053;-94
2021/09/17 04:36:22;;;;;;;0.00;0.00;;;12.50;99.90;;;;;;5017255;28;20512;-94
2021/09/17 04:38:49;;;;;;;0.00;0.00;;;12.50;99.90;;;;;;5017267;28;20045;-94
2021/09/17 04:41:16;;;;;;;0.00;0.00;;;12.50;99.90;;;;;;5017537;28;20041;-94
2021/09/17 04:43:43;;;;;;;0.10;0.10;;;12.50;99.90;;;;;;5001047;28;20077;-94
2021/09/17 04:46:10;;;;;;;0.30;0.30;;;12.50;99.90;;;;;;5000953;28;20502;-93
2021/09/17 04:48:37;;;;;;;0.00;0.00;;;12.50;99.90;;;;;;5017033;28;20045;-93
2021/09/17 04:51:04;;;;;;;0.10;0.10;;;12.50;99.90;;;;;;5016925;28;20068;-94
2021/09/17 04:53:31;;;;;;;0.10;0.10;;;12.50;99.90;;;;;;5000677;28;20410;-94
2021/09/17 04:55:57;;;;;;;0.00;0.00;;;12.50;99.90;;;;;;5000397;28;20493;-94
2021/09/17 04:58:25;;;;;;;0.00;0.00;;;12.50;99.90;;;;;;5000519;28;20037;-94
2021/09/17 05:00:52;;;;;;;0.00;0.00;;;12.50;99.90;;;;;;5016203;28;20038;-94
2021/09/17 05:03:19;;;;;;;0.43;0.22;;;12.50;99.90;;;;;;5016369;28;20154;-94
2021/09/17 05:05:46;;;;;;;0.00;0.00;;;12.50;99.90;;;;;;4999904;28;20084;-94
2021/09/17 05:08:13;;;;;;;0.00;0.00;;;12.50;99.90;;;;;;5000492;28;20497;-94
2021/09/17 05:10:40;;;;;;;0.00;0.00;;;12.50;99.90;;;;;;5000456;28;20140;-94
2021/09/17 05:13:07;;;;;;;0.08;0.08;;;12.50;99.90;;;;;;5000190;28;20045;-94
2021/09/17 05:15:33;;;;;;;0.00;0.00;;;12.50;99.90;;;;;;5017198;28;20084;-94
2021/09/17 05:18:00;;;;;;;1.25;0.25;;;12.50;99.90;;;;;;5015845;28;20046;-94
2021/09/17 05:20:27;;;;;;;0.00;0.00;;;12.50;99.90;;;;;;5000670;28;20068;-94
2021/09/17 05:22:54;;;;;;;0.00;0.00;;;12.50;99.90;;;;;;5032533;28;20048;-94
2021/09/17 05:25:21;;;;;;;0.00;0.00;;;12.50;99.90;;;;;;5000389;28;20042;-94
2021/09/17 05:27:48;;;;;;;0.00;0.00;;;12.60;99.90;;;;;;5000184;28;20052;-94
2021/09/17 05:30:15;;;;;;;0.10;0.10;;;12.60;99.90;;;;;;5016438;28;20038;-94
2021/09/17 05:32:42;;;;;;;0.03;0.03;;;12.60;99.90;;;;;;5032414;28;20042;-94
2021/09/17 05:35:10;;;;;;;0.00;0.00;;;12.70;99.90;;;;;;5000591;28;20060;-94
2021/09/17 05:37:37;;;;;;;0.00;0.00;;;12.70;99.90;;;;;;5016296;28;20129;-94
2021/09/17 05:40:05;;;;;;;0.10;0.10;;;12.80;99.90;;;;;;4999602;28;20080;-94
2021/09/17 05:42:32;;;;;;;0.20;0.17;;;12.80;99.90;;;;;;5015841;28;20133;-93
2021/09/17 05:44:59;;;;;;;0.00;0.00;;;12.80;99.90;;;;;;5000918;28;20494;-94
2021/09/17 05:47:26;;;;;;;0.00;0.00;;;12.80;99.90;;;;;;5032713;28;20042;-94
2021/09/17 05:49:53;;;;;;;0.30;0.20;;;12.90;99.90;;;;;;5015972;28;20054;-94
2021/09/17 05:52:19;;;;;;;0.17;0.17;;;12.90;99.90;;;;;;5016177;28;20092;-94
2021/09/17 05:54:46;;;;;;;0.00;0.00;;;13.00;99.90;;;;;;5015896;28;20077;-95
2021/09/17 05:57:14;;;;;;;0.00;0.00;;;13.00;99.90;;;;;;5015945;28;20096;-94
2021/09/17 05:59:41;;;;;;;0.05;0.05;;;13.10;99.90;;;;;;5000203;28;20046;-94
2021/09/17 06:02:08;;;;;;;0.13;0.13;;;13.10;99.90;;;;;;5031996;28;20394;-94
2021/09/17 06:04:35;;;;;;;0.10;0.10;;;13.10;99.90;;;;;;5016283;28;20034;-94
2021/09/17 06:07:03;;;;;;;0.10;0.10;;;13.10;99.90;;;;;;5015280;28;20291;-94
2021/09/17 06:09:30;;;;;;;0.00;0.00;;;13.10;99.90;;;;;;5018868;28;20046;-94
2021/09/17 06:11:56;;;;;;;0.28;0.28;;;13.20;99.90;;;;;;5011908;28;20387;-94
2021/09/17 06:14:23;;;;;;;0.47;0.22;;;13.20;99.90;;;;;;4999570;28;20042;-94
2021/09/17 06:16:50;;;;;;;0.05;0.05;;;13.30;99.90;;;;;;4999225;28;20046;-95
2021/09/17 06:19:19;;;;;;;0.00;0.00;;;13.30;99.90;;;;;;5015437;28;20129;-94
2021/09/17 06:21:46;;;;;;;0.08;0.08;;;13.40;99.90;;;;;;5015478;28;20490;-95
2021/09/17 06:24:13;;;;;;;0.10;0.10;;;13.40;99.90;;;;;;4999570;28;20099;-94
2021/09/17 06:26:40;;;;;;;0.05;0.05;;;13.50;99.90;;;;;;5015894;28;20042;-96
2021/09/17 06:29:08;;;;;;;0.45;0.30;;;13.50;99.90;;;;;;5031408;28;20042;-94
2021/09/17 06:31:35;;;;;;;0.00;0.00;;;13.60;99.90;;;;;;5015041;28;20045;-94
2021/09/17 06:34:05;;;;;;;0.05;0.05;;;13.70;99.90;;;;;;5032171;28;20050;-95
2021/09/17 06:36:33;;;;;;;0.13;0.10;;;13.70;99.90;;;;;;5026165;28;20046;-95
2021/09/17 06:39:03;;;;;;;0.00;0.00;;;13.70;99.90;;;;;;5014912;28;20042;-96
2021/09/17 06:41:30;;;;;;;0.08;0.08;;;14.10;99.90;;;;;;5013994;28;20160;-94
2021/09/17 06:43:57;;;;;;;0.25;0.22;;;13.90;99.90;;;;;;4996367;28;20049;-95
2021/09/17 06:46:34;;;;;;;0.10;0.10;;;13.90;99.90;;;;;;5001319;28;20596;-96
2021/09/17 06:49:01;;;;;;;0.25;0.25;;;14.00;99.90;;;;;;5012373;28;20053;-96
2021/09/17 06:51:28;;;;;;;0.10;0.10;;;14.10;99.90;;;;;;5030756;28;20042;-94
2021/09/17 06:53:55;;;;;;;0.08;0.08;;;14.10;99.90;;;;;;4996565;28;20056;-94
2021/09/17 06:56:22;;;;;;;0.00;0.00;;;14.20;99.90;;;;;;5001344;28;20112;-92
2021/09/17 06:58:49;;;;;;;0.75;0.15;;;14.20;99.90;;;;;;5011805;28;20042;-94
2021/09/17 07:01:16;;;;;;;0.73;0.45;;;14.20;99.90;;;;;;4979684;28;20044;-94
2021/09/17 07:03:43;;;;;;;0.20;0.10;;;14.30;99.90;;;;;;4995759;28;20046;-94
2021/09/17 07:06:09;;;;;;;0.20;0.10;;;14.30;99.90;;;;;;4979438;28;20577;-94
2021/09/17 07:08:42;;;;;;;0.00;0.00;;;14.40;99.90;;;;;;4998322;28;20038;-96
2021/09/17 07:11:10;;;;;;;0.00;0.00;;;14.50;99.90;;;;;;5012498;28;20089;-91
2021/09/17 07:13:37;;;;;;;0.50;0.30;;;14.50;99.90;;;;;;4995587;28;20038;-96
2021/09/17 07:16:04;;;;;;;0.15;0.15;;;14.60;99.90;;;;;;4997201;28;20034;-96
2021/09/17 07:18:30;;;;;;;0.20;0.10;;;14.40;99.90;;;;;;5013489;28;20189;-96
2021/09/17 07:21:03;;;;;;;0.50;0.30;;;14.60;99.90;;;;;;4995506;28;20093;-96
2021/09/17 07:24:00;;;;;;;0.60;0.50;;;14.20;99.90;;;;;;5014285;28;20363;-96
2021/09/17 07:26:27;;;;;;;;;;;14.70;99.90;;;;;;5012465;28;20047;-95
2021/09/17 07:28:53;;;;;;;0.05;0.05;;;14.50;99.90;;;;;;5022053;28;19928;-92
2021/09/17 07:31:20;;;;;;;0.10;0.10;;;14.90;99.90;;;;;;4998675;28;20046;-95
2021/09/17 07:33:47;;;;;;;0.15;0.15;;;15.10;99.90;;;;;;5014109;28;20057;-94
2021/09/17 07:36:14;;;;;;;0.13;0.10;;;15.20;99.90;;;;;;5010851;28;20041;-95
2021/09/17 07:38:41;;;;;;;0.00;0.00;;;15.30;99.90;;;;;;5002699;28;20042;-94
2021/09/17 07:41:08;;;;;;;0.15;0.15;;;15.50;99.90;;;;;;5006800;28;20556;-94
2021/09/17 07:43:38;;;;;;;0.43;0.30;;;15.60;99.90;;;;;;5029672;28;20422;-94
2021/09/17 07:46:06;;;;;;;0.17;0.17;;;15.60;99.90;;;;;;5033541;28;20041;-95
2021/09/17 07:48:33;;;;;;;0.28;0.17;;;15.70;99.90;;;;;;5015045;28;20042;-91
2021/09/17 07:51:00;;;;;;;1.38;0.50;;;15.70;99.90;;;;;;5013752;28;20137;-95
2021/09/17 07:53:27;;;;;;;0.52;0.35;;;15.70;99.90;;;;;;5035202;28;20108;-95
2021/09/17 07:55:53;;;;;;;0.13;0.13;;;15.70;99.90;;;;;;5015202;28;20043;-93
2021/09/17 07:58:21;;;;;;;0.35;0.17;;;15.60;99.90;;;;;;4994432;28;20130;-94
2021/09/17 08:00:48;;;;;;;1.25;0.55;;;15.90;99.90;;;;;;5034313;28;20038;-88
2021/09/17 08:03:22;;;;;;;0.40;0.30;;;16.00;99.90;;;;;;5001875;28;20034;-94
2021/09/17 08:05:49;;;;;;;0.85;0.52;;;16.00;99.90;;;;;;5034469;28;20038;-93
2021/09/17 08:08:16;;;;;;;1.27;0.40;;;16.10;99.90;;;;;;5034122;28;20038;-92
2021/09/17 08:10:43;;;;;;;1.45;0.63;;;16.10;99.90;;;;;;5016178;28;20038;-93
2021/09/17 08:13:13;;;;;;;1.17;0.65;;;16.20;99.90;;;;;;4997056;28;20038;-95
2021/09/17 08:15:40;;;;;;;0.82;0.43;;;16.00;99.90;;;;;;4998856;28;20394;-93
2021/09/17 08:18:09;;;;;;;1.10;0.43;;;16.30;99.90;;;;;;5014214;28;20034;-92
2021/09/17 08:20:40;;;;;;;0.65;0.32;;;16.40;99.90;;;;;;5014062;28;20046;-92
2021/09/17 08:23:07;;;;;;;1.50;0.50;;;16.50;99.90;;;;;;4982810;28;20061;-94
2021/09/17 08:25:34;;;;;;;0.65;0.40;;;16.50;99.90;;;;;;5021202;28;20069;-90
2021/09/17 08:28:01;;;;;;;0.60;0.32;;;16.60;99.90;;;;;;4996568;28;20124;-89
2021/09/17 08:30:27;;;;;;;0.30;0.30;;;16.70;99.90;;;;;;4981777;28;20070;-90
2021/09/17 08:32:54;;;;;;;1.48;0.70;;;16.70;99.90;;;;;;4997905;28;20045;-90
2021/09/17 08:35:21;;;;;;;0.98;0.55;;;16.80;99.90;;;;;;4997498;28;20047;-92
2021/09/17 08:37:48;;;;;;;1.33;0.60;;;16.80;99.90;;;;;;4997860;28;20074;-94
2021/09/17 08:40:15;;;;;;;0.30;0.22;;;16.90;99.90;;;;;;4993858;28;20080;-91
2021/09/17 08:42:43;;;;;;;2.35;0.50;;;17.00;99.90;;;;;;5013404;28;20041;-89
2021/09/17 08:45:13;;;;;;;1.00;0.60;;;17.00;99.90;;;;;;4998882;28;20038;-90
2021/09/17 08:47:45;;;;;;;1.25;0.65;;;17.00;99.90;;;;;;5006651;28;20045;-90
2021/09/17 08:50:12;;;;;;;0.98;0.52;;;17.00;99.90;;;;;;5015898;28;20064;-91
2021/09/17 08:52:39;;;;;;;0.20;0.20;;;17.10;99.90;;;;;;4981371;28;20491;-91
2021/09/17 08:55:06;;;;;;;0.47;0.30;;;17.10;99.90;;;;;;4980761;28;20137;-91
2021/09/17 08:57:33;;;;;;;1.75;0.47;;;17.20;99.90;;;;;;4996569;28;20038;-90
2021/09/17 09:00:01;;;;;;;0.57;0.47;;;17.20;99.90;;;;;;4990081;28;20100;-91
2021/09/17 09:02:29;;;;;;;0.15;0.15;;;17.20;99.90;;;;;;5022479;28;20477;-90
2021/09/17 09:05:05;;;;;;;0.43;0.28;;;17.30;99.90;;;;;;5049724;28;20129;-91
2021/09/17 09:07:38;;;;;;;0.20;0.20;;;17.30;99.90;;;;;;5033116;28;20088;-92
2021/09/17 09:10:17;;;;;;;0.10;0.10;;;17.40;99.90;;;;;;5016301;28;20053;-92
2021/09/17 09:12:51;;;;;;;0.20;0.17;;;17.50;99.90;;;;;;5033016;28;20042;-92
2021/09/17 09:15:19;;;;;;;0.20;0.15;;;17.50;99.90;;;;;;5032478;28;20477;-91
2021/09/17 09:17:48;;;;;;;0.40;0.30;;;17.60;99.90;;;;;;5033032;28;20445;-93
2021/09/17 09:20:47;;;;;;;0.95;0.52;;;17.60;99.90;;;;;;5032582;28;20128;-94
2021/09/17 09:23:17;;;;;;;0.22;0.20;;;17.60;99.90;;;;;;5032956;28;20044;-93
2021/09/17 09:26:06;;;;;;;0.90;0.40;;;17.60;99.90;;;;;;5032945;28;20133;-93
2021/09/17 09:29:29;;;;;;;0.63;0.40;;;17.70;99.90;;;;;;5049486;28;20042;-93
2021/09/17 09:32:25;;;;;;;0.80;0.50;;;17.80;99.90;;;;;;4929520;29;20044;-92
2021/09/17 09:35:04;;;;;;;0.32;0.20;;;17.80;99.90;;;;;;5021043;28;20375;-95
2021/09/17 09:37:39;;;;;;;1.15;0.52;;;17.90;99.90;;;;;;5017231;28;20363;-96
2021/09/17 09:40:17;;;;;;;0.38;0.38;;;17.90;99.90;;;;;;5017679;28;20133;-96
2021/09/17 09:42:47;;;;;;;0.68;0.30;;;17.90;99.90;;;;;;5033347;28;20033;-95
2021/09/17 09:45:20;;;;;;;1.13;0.47;;;18.00;99.90;;;;;;5032146;28;20038;-94
2021/09/17 09:47:57;;;;;;;0.70;0.43;;;18.20;99.90;;;;;;5037513;28;20084;-96
2021/09/17 09:50:32;;;;;;;1.13;0.57;;;18.30;99.90;;;;;;5043211;28;20048;-96
2021/09/17 09:53:01;;;;;;;1.25;0.77;;;18.50;99.90;;;;;;5044861;28;20394;-96
2021/09/17 09:55:30;;;;;;;0.43;0.38;;;18.60;99.90;;;;;;5045094;28;20532;-96
2021/09/17 09:57:58;;;;;;;0.77;0.50;;;18.90;99.90;;;;;;5044650;28;20482;-96
2021/09/17 10:00:27;;;;;;;0.65;0.32;;;19.00;99.90;;;;;;5027153;28;20049;-96
2021/09/17 10:02:57;;;;;;;1.08;0.57;;;19.00;99.90;;;;;;5063089;28;20065;-96
2021/09/17 10:05:30;;;;;;;1.27;0.73;;;18.90;99.90;;;;;;5031466;28;20053;-96
2021/09/17 10:08:01;;;;;;;0.70;0.55;;;18.90;99.90;;;;;;5046520;28;20053;-96
2021/09/17 10:10:28;;;;;;;0.57;0.40;;;18.80;99.90;;;;;;5046595;28;20106;-96
2021/09/17 10:12:58;;;;;;;1.83;0.90;;;18.90;99.90;;;;;;5047253;28;20037;-96
2021/09/17 10:15:29;;;;;;;1.25;0.60;;;18.80;99.90;;;;;;5046389;28;20137;-96
2021/09/17 10:17:59;;;;;;;0.85;0.52;;;18.90;99.90;;;;;;5047980;28;20046;-96
2021/09/17 10:20:37;;;;;;;0.52;0.35;;;18.90;99.90;;;;;;5045881;28;20084;-96
2021/09/17 10:23:27;;;;;;;1.05;0.65;;;19.10;99.90;;;;;;5046868;28;20049;-96
2021/09/17 10:26:09;;;;;;;0.70;0.45;;;19.20;99.90;;;;;;5043868;28;20038;-96
2021/09/17 10:29:05;;;;;;;0.57;0.40;;;19.20;99.90;;;;;;5047141;28;20044;-96
2021/09/17 10:31:45;;;;;;;1.58;0.77;;;19.10;99.90;;;;;;5045380;28;20045;-96
2021/09/17 10:34:30;;;;;;;1.63;0.70;;;19.10;99.90;;;;;;5043780;28;20451;-96
2021/09/17 10:36:58;;;;;;;2.08;1.08;;;19.20;99.90;;;;;;5045917;28;20502;-96
2021/09/17 10:42:33;;;;;;;1.35;0.82;;;19.00;99.90;;;;;;5058223;28;20041;-96
2021/09/17 10:45:14;;;;;;;0.68;0.50;;;19.00;99.90;;;;;;5043335;28;20022;-96
2021/09/17 10:47:44;;;;;;;1.00;0.60;;;19.10;99.90;;;;;;5046538;28;20052;-96
2021/09/17 10:50:14;;;;;;;2.50;0.60;;;18.90;99.90;;;;;;5044916;28;20065;-96
2021/09/17 10:52:43;;;;;;;2.50;0.90;;;18.80;99.90;;;;;;5029222;28;20046;-96
2021/09/17 10:55:42;;;;;;;2.70;0.93;;;18.90;99.90;;;;;;5045745;28;20042;-96
2021/09/17 10:58:22;;;;;;;3.13;0.93;;;18.90;99.90;;;;;;5041382;28;20125;-96
2021/09/17 11:00:57;;;;;;;1.25;0.70;;;19.00;99.90;;;;;;5043347;28;20494;-96
2021/09/17 11:03:38;;;;;;;0.65;0.43;;;19.00;99.90;;;;;;5043762;28;20042;-96
2021/09/17 11:06:27;;;;;;;1.33;0.80;;;19.10;99.90;;;;;;5045394;28;20038;-96
2021/09/17 11:09:02;;;;;;;1.08;0.63;;;19.10;99.90;;;;;;5038272;28;20038;-96
2021/09/17 11:11:41;;;;;;;1.25;0.75;;;19.10;99.90;;;;;;5041329;28;20045;-96
2021/09/17 11:14:17;;;;;;;0.73;0.40;;;19.00;99.90;;;;;;5043991;28;20536;-96
2021/09/17 11:16:52;;;;;;;0.45;0.30;;;19.10;99.90;;;;;;5045758;28;20065;-96
2021/09/17 11:19:19;;;;;;;1.58;0.70;;;19.00;99.90;;;;;;5040692;28;20053;-96
2021/09/17 11:21:52;;;;;;;0.45;0.40;;;18.90;99.90;;;;;;5020415;28;20399;-94
2021/09/17 11:24:22;;;;;;;1.38;0.60;;;19.00;99.90;;;;;;5019032;28;20045;-96
2021/09/17 11:26:51;;;;;;;1.50;0.68;;;18.90;99.90;;;;;;5016781;28;20074;-96
2021/09/17 11:29:21;;;;;;;1.27;0.73;;;18.90;99.90;;;;;;5030527;28;20046;-96
2021/09/17 11:31:51;;;;;;;0.40;0.28;;;18.80;99.90;;;;;;5022291;28;20050;-95
2021/09/17 11:34:20;;;;;;;1.17;0.60;;;18.80;99.90;;;;;;5035671;28;20042;-96
2021/09/17 11:36:54;;;;;;;1.10;0.70;;;18.80;99.90;;;;;;5034218;28;20042;-96
2021/09/17 11:39:27;;;;;;;1.83;0.77;;;18.70;99.90;;;;;;5024971;28;20046;-95
2021/09/17 11:42:22;;;;;;;0.45;0.40;;;18.70;99.90;;;;;;5017278;28;20041;-96
2021/09/17 11:44:53;;;;;;;0.50;0.40;;;18.70;99.90;;;;;;5012911;28;20046;-96
2021/09/17 11:47:21;;;;;;;0.77;0.40;;;19.00;99.90;;;;;;5021381;28;20038;-96
2021/09/17 11:49:48;;;;;;;1.02;0.55;;;18.90;99.90;;;;;;5033855;28;20136;-95
2021/09/17 11:52:18;;;;;;;0.85;0.52;;;18.90;99.90;;;;;;5034155;28;20512;-95
2021/09/17 11:54:59;;;;;;;0.95;0.40;;;19.00;99.90;;;;;;5036709;28;20046;-95
2021/09/17 11:57:31;;;;;;;0.70;0.55;;;19.00;99.90;;;;;;5024665;28;20026;-95
2021/09/17 11:59:58;;;;;;;0.68;0.43;;;19.00;99.90;;;;;;5031956;28;20049;-96
2021/09/17 12:02:26;;;;;;;0.65;0.43;;;18.90;99.90;;;;;;5034332;28;20040;-93
2021/09/17 12:04:58;;;;;;;0.63;0.30;;;18.90;99.90;;;;;;5017700;28;20112;-96
2021/09/17 12:07:27;;;;;;;0.55;0.50;;;18.90;99.90;;;;;;5015958;28;20066;-95
2021/09/17 12:09:54;;;;;;;0.70;0.40;;;18.90;99.90;;;;;;5014451;28;20034;-96
2021/09/17 12:12:39;;;;;;;0.70;0.40;;;18.80;99.90;;;;;;5015526;28;20046;-96
2021/09/17 12:15:07;;;;;;;1.48;0.20;;;18.90;99.90;;;;;;5009262;28;20073;-96
2021/09/17 12:17:49;;;;;;;0.75;0.43;;;18.90;99.90;;;;;;5034954;28;20038;-96
2021/09/17 12:20:19;;;;;;;0.70;0.40;;;18.90;99.90;;;;;;5050950;28;20041;-94
2021/09/17 12:22:56;;;;;;;0.20;0.20;;;18.80;99.90;;;;;;5021874;28;20014;-92
2021/09/17 12:25:30;;;;;;;0.47;0.30;;;18.80;99.90;;;;;;5046011;23;20070;-91
2021/09/17 12:28:09;;;;;;;0.38;0.28;;;18.90;99.90;;;;;;4977564;28;20047;-95
2021/09/17 12:30:37;;;;;;;0.28;0.20;;;18.90;99.90;;;;;;4978760;29;20035;-93
2021/09/17 12:33:13;;;;;;;0.20;0.20;;;19.00;99.90;;;;;;4943802;29;20130;-93
2021/09/17 12:35:45;;;;;;;0.20;0.20;;;19.10;99.90;;;;;;4959571;29;20046;-96
2021/09/17 12:38:14;;;;;;;0.82;0.40;;;19.20;99.90;;;;;;4960257;29;20168;-96
2021/09/17 12:40:47;;;;;;;0.82;0.47;;;19.30;99.90;;;;;;4991565;29;20054;-95
2021/09/17 12:43:22;;;;;;;1.15;0.73;;;19.40;99.90;;;;;;4959406;29;20079;-95
2021/09/17 12:46:02;;;;;;;1.50;0.70;;;19.50;99.90;;;;;;4959181;29;20043;-94
2021/09/17 12:48:34;;;;;;;0.82;0.52;;;19.60;99.90;;;;;;4975159;29;20043;-93
2021/09/17 12:51:03;;;;;;;0.60;0.45;;;19.50;99.90;;;;;;4943454;29;20369;-94
2021/09/17 12:53:38;;;;;;;0.70;0.50;;;19.40;99.90;;;;;;4943360;29;20404;-93
2021/09/17 12:56:11;;;;;;;1.42;0.63;;;19.30;99.90;;;;;;4943526;29;20130;-93
2021/09/17 12:58:39;;;;;;;0.38;0.38;;;19.20;99.90;;;;;;4968718;28;20104;-93
2021/09/17 13:01:08;;;;;;;1.17;0.52;;;19.20;99.90;;;;;;5002468;28;20067;-92
2021/09/17 13:03:36;;;;;;;0.68;0.40;;;19.10;99.90;;;;;;4968067;28;20122;-92